South San Pedro, Texas
Current Conditions -  °F | °C
As of 5:15 PM on Saturday 22 Nov 2014 (Local Time) from KRBO Reporting Station
Scattered Clouds Scattered Clouds  
Wind Chill: 75°   Ceiling: Unl
Heat Index: 75°   Visibility: 10mi
Dew Point: 70°   Wind: 9mph
Humidity: 83%   Direction: 150°SSE
Pressure: 29.75"   Gusts: NA
Location:  27.7757°N, 97.7554°W
Report Text: KRBO 222315Z AUTO 15008KT 10SM SCT018 SCT033 SCT050 24/21 A2975 RMK AO2 T02400209
Loading
Personal Weather Stations






























Interactive Weather Map New forecast layout! Learn more

10-Day Weather Forecast

Advertisements
Track Severe Weather on mobile